sensor_id;sensor_type;location;lat;lon;timestamp;P1;durP1;ratioP1;P2;durP2;ratioP2
22916;SDS011;11624;53.250;7.456;2024-02-21T00:00:43;23.67;;;8.35;;
22916;SDS011;11624;53.250;7.456;2024-02-21T00:03:11;26.20;;;9.32;;
22916;SDS011;11624;53.250;7.456;2024-02-21T00:05:40;23.90;;;9.02;;
22916;SDS011;11624;53.250;7.456;2024-02-21T00:08:08;22.35;;;9.15;;
22916;SDS011;11624;53.250;7.456;2024-02-21T00:10:37;22.85;;;8.98;;
22916;SDS011;11624;53.250;7.456;2024-02-21T00:13:05;28.75;;;8.07;;
22916;SDS011;11624;53.250;7.456;2024-02-21T00:15:35;22.30;;;8.85;;
22916;SDS011;11624;53.250;7.456;2024-02-21T00:18:04;20.77;;;8.73;;
22916;SDS011;11624;53.250;7.456;2024-02-21T00:20:33;20.42;;;8.88;;
22916;SDS011;11624;53.250;7.456;2024-02-21T00:23:01;18.40;;;7.70;;
22916;SDS011;11624;53.250;7.456;2024-02-21T00:25:30;23.40;;;8.20;;
22916;SDS011;11624;53.250;7.456;2024-02-21T00:27:58;29.05;;;8.23;;
22916;SDS011;11624;53.250;7.456;2024-02-21T00:30:27;18.33;;;7.13;;
22916;SDS011;11624;53.250;7.456;2024-02-21T00:32:57;25.35;;;8.30;;
22916;SDS011;11624;53.250;7.456;2024-02-21T00:35:25;16.73;;;6.18;;
22916;SDS011;11624;53.250;7.456;2024-02-21T00:37:54;21.17;;;6.80;;
22916;SDS011;11624;53.250;7.456;2024-02-21T00:40:24;24.48;;;7.30;;
22916;SDS011;11624;53.250;7.456;2024-02-21T00:42:52;23.05;;;6.38;;
22916;SDS011;11624;53.250;7.456;2024-02-21T00:45:21;20.52;;;6.30;;
22916;SDS011;11624;53.250;7.456;2024-02-21T00:47:50;18.85;;;5.63;;
22916;SDS011;11624;53.250;7.456;2024-02-21T00:50:20;19.92;;;5.95;;
22916;SDS011;11624;53.250;7.456;2024-02-21T00:52:49;17.75;;;5.63;;
22916;SDS011;11624;53.250;7.456;2024-02-21T00:55:17;19.98;;;6.38;;
22916;SDS011;11624;53.250;7.456;2024-02-21T00:57:46;16.27;;;5.68;;
22916;SDS011;11624;53.250;7.456;2024-02-21T01:00:15;19.10;;;5.70;;
22916;SDS011;11624;53.250;7.456;2024-02-21T01:02:44;18.42;;;5.45;;
22916;SDS011;11624;53.250;7.456;2024-02-21T01:05:12;16.17;;;5.18;;
22916;SDS011;11624;53.250;7.456;2024-02-21T01:07:42;18.75;;;5.35;;
22916;SDS011;11624;53.250;7.456;2024-02-21T01:10:11;21.45;;;6.35;;
22916;SDS011;11624;53.250;7.456;2024-02-21T01:12:39;21.98;;;5.88;;
22916;SDS011;11624;53.250;7.456;2024-02-21T01:15:08;17.02;;;6.15;;
22916;SDS011;11624;53.250;7.456;2024-02-21T01:17:37;21.15;;;6.68;;
22916;SDS011;11624;53.250;7.456;2024-02-21T01:20:07;19.40;;;6.25;;
22916;SDS011;11624;53.250;7.456;2024-02-21T01:22:36;22.13;;;6.60;;
22916;SDS011;11624;53.250;7.456;2024-02-21T01:25:07;28.75;;;6.53;;
22916;SDS011;11624;53.250;7.456;2024-02-21T01:27:36;18.45;;;6.63;;
22916;SDS011;11624;53.250;7.456;2024-02-21T01:30:05;17.83;;;5.88;;
22916;SDS011;11624;53.250;7.456;2024-02-21T01:32:34;20.35;;;6.25;;
22916;SDS011;11624;53.250;7.456;2024-02-21T01:35:03;18.15;;;5.53;;
22916;SDS011;11624;53.250;7.456;2024-02-21T01:37:33;19.30;;;5.20;;
22916;SDS011;11624;53.250;7.456;2024-02-21T01:40:01;19.10;;;5.95;;
22916;SDS011;11624;53.250;7.456;2024-02-21T01:42:32;18.20;;;5.28;;
22916;SDS011;11624;53.250;7.456;2024-02-21T01:45:00;22.95;;;5.25;;
22916;SDS011;11624;53.250;7.456;2024-02-21T01:47:29;20.90;;;5.25;;
22916;SDS011;11624;53.250;7.456;2024-02-21T01:49:57;14.98;;;4.85;;
22916;SDS011;11624;53.250;7.456;2024-02-21T01:52:26;17.52;;;4.90;;
22916;SDS011;11624;53.250;7.456;2024-02-21T01:54:55;15.57;;;4.68;;
22916;SDS011;11624;53.250;7.456;2024-02-21T01:57:25;17.50;;;4.57;;
22916;SDS011;11624;53.250;7.456;2024-02-21T01:59:56;15.15;;;4.13;;
22916;SDS011;11624;53.250;7.456;2024-02-21T02:02:25;13.05;;;3.92;;
22916;SDS011;11624;53.250;7.456;2024-02-21T02:04:54;15.95;;;3.67;;
22916;SDS011;11624;53.250;7.456;2024-02-21T02:07:24;13.45;;;4.22;;
22916;SDS011;11624;53.250;7.456;2024-02-21T02:09:52;17.10;;;3.78;;
22916;SDS011;11624;53.250;7.456;2024-02-21T02:12:21;14.95;;;4.25;;
22916;SDS011;11624;53.250;7.456;2024-02-21T02:14:58;17.90;;;4.85;;
22916;SDS011;11624;53.250;7.456;2024-02-21T02:17:27;14.32;;;4.15;;
22916;SDS011;11624;53.250;7.456;2024-02-21T02:19:55;15.77;;;3.42;;
22916;SDS011;11624;53.250;7.456;2024-02-21T02:22:26;16.10;;;4.47;;
22916;SDS011;11624;53.250;7.456;2024-02-21T02:24:58;16.77;;;4.50;;
22916;SDS011;11624;53.250;7.456;2024-02-21T02:27:26;19.00;;;4.13;;
22916;SDS011;11624;53.250;7.456;2024-02-21T02:29:55;17.33;;;4.40;;
22916;SDS011;11624;53.250;7.456;2024-02-21T02:32:23;17.50;;;4.65;;
22916;SDS011;11624;53.250;7.456;2024-02-21T02:34:52;16.13;;;4.28;;
22916;SDS011;11624;53.250;7.456;2024-02-21T02:37:20;18.15;;;4.00;;
22916;SDS011;11624;53.250;7.456;2024-02-21T02:39:49;16.23;;;3.88;;
22916;SDS011;11624;53.250;7.456;2024-02-21T02:42:19;19.10;;;3.92;;
22916;SDS011;11624;53.250;7.456;2024-02-21T02:44:47;22.25;;;4.25;;
22916;SDS011;11624;53.250;7.456;2024-02-21T02:47:16;15.38;;;4.25;;
22916;SDS011;11624;53.250;7.456;2024-02-21T02:49:44;18.90;;;4.40;;
22916;SDS011;11624;53.250;7.456;2024-02-21T02:52:17;12.82;;;3.83;;
22916;SDS011;11624;53.250;7.456;2024-02-21T02:54:46;16.53;;;4.50;;
22916;SDS011;11624;53.250;7.456;2024-02-21T02:57:20;16.70;;;4.07;;
22916;SDS011;11624;53.250;7.456;2024-02-21T02:59:48;16.17;;;4.32;;
22916;SDS011;11624;53.250;7.456;2024-02-21T03:02:17;14.63;;;3.80;;
22916;SDS011;11624;53.250;7.456;2024-02-21T03:04:46;14.77;;;3.90;;
22916;SDS011;11624;53.250;7.456;2024-02-21T03:07:14;16.67;;;3.92;;
22916;SDS011;11624;53.250;7.456;2024-02-21T03:09:43;14.80;;;4.50;;
22916;SDS011;11624;53.250;7.456;2024-02-21T03:12:12;16.55;;;4.13;;
22916;SDS011;11624;53.250;7.456;2024-02-21T03:14:47;19.02;;;4.15;;
22916;SDS011;11624;53.250;7.456;2024-02-21T03:17:15;17.15;;;4.05;;
22916;SDS011;11624;53.250;7.456;2024-02-21T03:19:44;12.63;;;4.05;;
22916;SDS011;11624;53.250;7.456;2024-02-21T03:22:12;14.70;;;4.20;;
22916;SDS011;11624;53.250;7.456;2024-02-21T03:24:41;10.73;;;4.20;;
22916;SDS011;11624;53.250;7.456;2024-02-21T03:27:09;18.05;;;4.65;;
22916;SDS011;11624;53.250;7.456;2024-02-21T03:29:38;15.45;;;4.30;;
22916;SDS011;11624;53.250;7.456;2024-02-21T03:32:08;16.92;;;4.43;;
22916;SDS011;11624;53.250;7.456;2024-02-21T03:34:36;16.60;;;3.83;;
22916;SDS011;11624;53.250;7.456;2024-02-21T03:37:05;15.63;;;4.10;;
22916;SDS011;11624;53.250;7.456;2024-02-21T03:39:33;14.35;;;4.25;;
22916;SDS011;11624;53.250;7.456;2024-02-21T03:42:02;14.48;;;4.60;;
22916;SDS011;11624;53.250;7.456;2024-02-21T03:44:31;20.45;;;4.82;;
22916;SDS011;11624;53.250;7.456;2024-02-21T03:47:00;14.43;;;5.10;;
22916;SDS011;11624;53.250;7.456;2024-02-21T03:49:30;19.15;;;5.68;;
22916;SDS011;11624;53.250;7.456;2024-02-21T03:51:58;15.50;;;5.22;;
22916;SDS011;11624;53.250;7.456;2024-02-21T03:54:27;14.40;;;5.57;;
22916;SDS011;11624;53.250;7.456;2024-02-21T03:56:55;16.27;;;4.70;;
22916;SDS011;11624;53.250;7.456;2024-02-21T03:59:24;18.90;;;5.88;;
22916;SDS011;11624;53.250;7.456;2024-02-21T04:01:52;15.48;;;5.35;;
22916;SDS011;11624;53.250;7.456;2024-02-21T04:04:21;17.65;;;5.50;;
22916;SDS011;11624;53.250;7.456;2024-02-21T04:06:51;20.98;;;5.60;;
22916;SDS011;11624;53.250;7.456;2024-02-21T04:09:19;21.02;;;6.18;;
22916;SDS011;11624;53.250;7.456;2024-02-21T04:11:48;18.27;;;5.60;;
22916;SDS011;11624;53.250;7.456;2024-02-21T04:14:17;16.63;;;5.80;;
22916;SDS011;11624;53.250;7.456;2024-02-21T04:16:45;17.83;;;5.90;;
22916;SDS011;11624;53.250;7.456;2024-02-21T04:19:14;25.23;;;5.88;;
22916;SDS011;11624;53.250;7.456;2024-02-21T04:21:42;19.52;;;5.75;;
22916;SDS011;11624;53.250;7.456;2024-02-21T04:24:12;16.42;;;5.70;;
22916;SDS011;11624;53.250;7.456;2024-02-21T04:26:41;21.88;;;6.22;;
22916;SDS011;11624;53.250;7.456;2024-02-21T04:29:10;20.88;;;6.82;;
22916;SDS011;11624;53.250;7.456;2024-02-21T04:31:39;16.73;;;6.20;;
22916;SDS011;11624;53.250;7.456;2024-02-21T04:34:07;19.15;;;6.22;;
22916;SDS011;11624;53.250;7.456;2024-02-21T04:36:36;17.52;;;6.88;;
22916;SDS011;11624;53.250;7.456;2024-02-21T04:39:04;22.08;;;7.03;;
22916;SDS011;11624;53.250;7.456;2024-02-21T04:41:35;20.35;;;6.45;;
22916;SDS011;11624;53.250;7.456;2024-02-21T04:44:04;21.60;;;6.55;;
22916;SDS011;11624;53.250;7.456;2024-02-21T04:46:32;21.48;;;7.05;;
22916;SDS011;11624;53.250;7.456;2024-02-21T04:49:01;26.52;;;7.70;;
22916;SDS011;11624;53.250;7.456;2024-02-21T04:51:30;20.33;;;6.60;;
22916;SDS011;11624;53.250;7.456;2024-02-21T04:54:00;22.25;;;7.68;;
22916;SDS011;11624;53.250;7.456;2024-02-21T04:56:28;20.42;;;6.95;;
22916;SDS011;11624;53.250;7.456;2024-02-21T04:58:58;17.77;;;6.72;;
22916;SDS011;11624;53.250;7.456;2024-02-21T05:01:27;24.00;;;7.45;;
22916;SDS011;11624;53.250;7.456;2024-02-21T05:03:56;23.35;;;7.97;;
22916;SDS011;11624;53.250;7.456;2024-02-21T05:06:25;21.75;;;7.68;;
22916;SDS011;11624;53.250;7.456;2024-02-21T05:08:53;22.38;;;7.03;;
22916;SDS011;11624;53.250;7.456;2024-02-21T05:11:24;26.52;;;7.40;;
22916;SDS011;11624;53.250;7.456;2024-02-21T05:13:53;21.77;;;7.28;;
22916;SDS011;11624;53.250;7.456;2024-02-21T05:16:23;21.27;;;7.00;;
22916;SDS011;11624;53.250;7.456;2024-02-21T05:18:52;22.73;;;6.68;;
22916;SDS011;11624;53.250;7.456;2024-02-21T05:21:20;21.80;;;6.63;;
22916;SDS011;11624;53.250;7.456;2024-02-21T05:23:50;20.88;;;6.65;;
22916;SDS011;11624;53.250;7.456;2024-02-21T05:26:22;19.73;;;6.47;;
22916;SDS011;11624;53.250;7.456;2024-02-21T05:28:50;20.15;;;6.88;;
22916;SDS011;11624;53.250;7.456;2024-02-21T05:31:20;17.05;;;6.95;;
22916;SDS011;11624;53.250;7.456;2024-02-21T05:33:50;26.95;;;6.32;;
22916;SDS011;11624;53.250;7.456;2024-02-21T05:36:18;21.48;;;6.90;;
22916;SDS011;11624;53.250;7.456;2024-02-21T05:38:46;21.25;;;7.32;;
22916;SDS011;11624;53.250;7.456;2024-02-21T05:41:15;21.15;;;6.32;;
22916;SDS011;11624;53.250;7.456;2024-02-21T05:43:44;22.83;;;6.40;;
22916;SDS011;11624;53.250;7.456;2024-02-21T05:46:12;23.27;;;7.72;;
22916;SDS011;11624;53.250;7.456;2024-02-21T05:48:41;19.73;;;7.15;;
22916;SDS011;11624;53.250;7.456;2024-02-21T05:51:11;28.23;;;7.70;;
22916;SDS011;11624;53.250;7.456;2024-02-21T05:53:40;22.55;;;7.72;;
22916;SDS011;11624;53.250;7.456;2024-02-21T05:56:09;21.77;;;7.53;;
22916;SDS011;11624;53.250;7.456;2024-02-21T05:58:38;20.02;;;7.45;;
22916;SDS011;11624;53.250;7.456;2024-02-21T06:01:07;18.98;;;7.07;;
22916;SDS011;11624;53.250;7.456;2024-02-21T06:03:36;24.92;;;8.30;;
22916;SDS011;11624;53.250;7.456;2024-02-21T06:06:05;23.15;;;6.85;;
22916;SDS011;11624;53.250;7.456;2024-02-21T06:08:35;25.42;;;7.32;;
22916;SDS011;11624;53.250;7.456;2024-02-21T06:11:03;22.58;;;7.75;;
22916;SDS011;11624;53.250;7.456;2024-02-21T06:13:32;26.27;;;8.32;;
22916;SDS011;11624;53.250;7.456;2024-02-21T06:16:00;24.88;;;7.43;;
22916;SDS011;11624;53.250;7.456;2024-02-21T06:18:30;23.63;;;7.35;;
22916;SDS011;11624;53.250;7.456;2024-02-21T06:20:58;25.98;;;7.80;;
22916;SDS011;11624;53.250;7.456;2024-02-21T06:23:26;23.38;;;7.55;;
22916;SDS011;11624;53.250;7.456;2024-02-21T06:25:56;21.67;;;7.50;;
22916;SDS011;11624;53.250;7.456;2024-02-21T06:28:25;25.40;;;7.00;;
22916;SDS011;11624;53.250;7.456;2024-02-21T06:30:53;24.15;;;7.97;;
22916;SDS011;11624;53.250;7.456;2024-02-21T06:33:22;22.50;;;7.65;;
22916;SDS011;11624;53.250;7.456;2024-02-21T06:35:51;25.73;;;8.32;;
22916;SDS011;11624;53.250;7.456;2024-02-21T06:38:20;25.70;;;7.55;;
22916;SDS011;11624;53.250;7.456;2024-02-21T06:40:49;22.65;;;8.38;;
22916;SDS011;11624;53.250;7.456;2024-02-21T06:43:20;23.08;;;8.27;;
22916;SDS011;11624;53.250;7.456;2024-02-21T06:45:49;20.40;;;8.38;;
22916;SDS011;11624;53.250;7.456;2024-02-21T06:48:18;22.13;;;8.10;;
22916;SDS011;11624;53.250;7.456;2024-02-21T06:50:47;28.17;;;8.07;;
22916;SDS011;11624;53.250;7.456;2024-02-21T06:53:15;23.85;;;7.85;;
22916;SDS011;11624;53.250;7.456;2024-02-21T06:55:43;23.30;;;8.82;;
22916;SDS011;11624;53.250;7.456;2024-02-21T06:58:15;27.55;;;8.90;;
22916;SDS011;11624;53.250;7.456;2024-02-21T07:00:45;26.65;;;8.52;;
22916;SDS011;11624;53.250;7.456;2024-02-21T07:03:13;27.05;;;8.23;;
22916;SDS011;11624;53.250;7.456;2024-02-21T07:05:42;26.80;;;9.45;;
22916;SDS011;11624;53.250;7.456;2024-02-21T07:08:11;29.92;;;8.55;;
22916;SDS011;11624;53.250;7.456;2024-02-21T07:10:39;28.27;;;9.40;;
22916;SDS011;11624;53.250;7.456;2024-02-21T07:13:08;21.92;;;8.60;;
22916;SDS011;11624;53.250;7.456;2024-02-21T07:15:36;33.30;;;8.85;;
22916;SDS011;11624;53.250;7.456;2024-02-21T07:18:06;28.23;;;9.57;;
22916;SDS011;11624;53.250;7.456;2024-02-21T07:20:35;38.28;;;9.98;;
22916;SDS011;11624;53.250;7.456;2024-02-21T07:23:04;27.30;;;8.45;;
22916;SDS011;11624;53.250;7.456;2024-02-21T07:25:32;40.92;;;9.60;;
22916;SDS011;11624;53.250;7.456;2024-02-21T07:28:01;31.65;;;9.18;;
22916;SDS011;11624;53.250;7.456;2024-02-21T07:30:29;26.65;;;8.70;;
22916;SDS011;11624;53.250;7.456;2024-02-21T07:32:58;27.45;;;8.00;;
22916;SDS011;11624;53.250;7.456;2024-02-21T07:35:28;29.33;;;9.70;;
22916;SDS011;11624;53.250;7.456;2024-02-21T07:37:56;27.65;;;9.15;;
22916;SDS011;11624;53.250;7.456;2024-02-21T07:40:25;30.52;;;9.32;;
22916;SDS011;11624;53.250;7.456;2024-02-21T07:42:53;25.27;;;8.63;;
22916;SDS011;11624;53.250;7.456;2024-02-21T07:45:22;31.45;;;8.80;;
22916;SDS011;11624;53.250;7.456;2024-02-21T07:47:51;27.23;;;8.40;;
22916;SDS011;11624;53.250;7.456;2024-02-21T07:50:19;22.42;;;7.65;;
22916;SDS011;11624;53.250;7.456;2024-02-21T07:52:49;23.70;;;7.90;;
22916;SDS011;11624;53.250;7.456;2024-02-21T07:55:18;32.47;;;9.18;;
22916;SDS011;11624;53.250;7.456;2024-02-21T07:57:46;19.20;;;7.75;;
22916;SDS011;11624;53.250;7.456;2024-02-21T08:00:15;24.73;;;8.05;;
22916;SDS011;11624;53.250;7.456;2024-02-21T08:02:47;22.60;;;8.68;;
22916;SDS011;11624;53.250;7.456;2024-02-21T08:05:16;28.27;;;8.85;;
22916;SDS011;11624;53.250;7.456;2024-02-21T08:07:45;27.25;;;8.35;;
22916;SDS011;11624;53.250;7.456;2024-02-21T08:10:15;20.08;;;7.72;;
22916;SDS011;11624;53.250;7.456;2024-02-21T08:12:43;22.52;;;7.97;;
22916;SDS011;11624;53.250;7.456;2024-02-21T08:15:12;28.63;;;8.65;;
22916;SDS011;11624;53.250;7.456;2024-02-21T08:17:40;32.58;;;9.48;;
22916;SDS011;11624;53.250;7.456;2024-02-21T08:20:09;34.72;;;10.05;;
22916;SDS011;11624;53.250;7.456;2024-02-21T08:22:38;39.03;;;10.00;;
22916;SDS011;11624;53.250;7.456;2024-02-21T08:25:07;32.55;;;9.48;;
22916;SDS011;11624;53.250;7.456;2024-02-21T08:27:37;30.20;;;10.18;;
22916;SDS011;11624;53.250;7.456;2024-02-21T08:30:06;30.48;;;11.02;;
22916;SDS011;11624;53.250;7.456;2024-02-21T08:32:35;28.95;;;10.23;;
22916;SDS011;11624;53.250;7.456;2024-02-21T08:35:04;28.25;;;9.80;;
22916;SDS011;11624;53.250;7.456;2024-02-21T08:37:33;28.05;;;9.65;;
22916;SDS011;11624;53.250;7.456;2024-02-21T08:40:01;33.08;;;10.98;;
22916;SDS011;11624;53.250;7.456;2024-02-21T08:42:36;26.13;;;10.45;;
22916;SDS011;11624;53.250;7.456;2024-02-21T08:45:07;28.08;;;9.55;;
22916;SDS011;11624;53.250;7.456;2024-02-21T08:47:38;29.48;;;10.85;;
22916;SDS011;11624;53.250;7.456;2024-02-21T08:50:08;38.92;;;11.15;;
22916;SDS011;11624;53.250;7.456;2024-02-21T08:52:53;27.15;;;10.77;;
22916;SDS011;11624;53.250;7.456;2024-02-21T08:55:21;29.10;;;10.10;;
22916;SDS011;11624;53.250;7.456;2024-02-21T08:57:52;29.52;;;10.38;;
22916;SDS011;11624;53.250;7.456;2024-02-21T09:00:21;34.95;;;10.75;;
22916;SDS011;11624;53.250;7.456;2024-02-21T09:02:54;31.05;;;10.50;;
22916;SDS011;11624;53.250;7.456;2024-02-21T09:05:23;26.48;;;10.68;;
22916;SDS011;11624;53.250;7.456;2024-02-21T09:07:52;23.67;;;9.40;;
22916;SDS011;11624;53.250;7.456;2024-02-21T09:10:21;29.17;;;11.43;;
22916;SDS011;11624;53.250;7.456;2024-02-21T09:12:52;26.38;;;10.23;;
22916;SDS011;11624;53.250;7.456;2024-02-21T09:15:20;26.08;;;11.45;;
22916;SDS011;11624;53.250;7.456;2024-02-21T09:17:51;32.13;;;11.60;;
22916;SDS011;11624;53.250;7.456;2024-02-21T09:20:19;30.48;;;11.38;;
22916;SDS011;11624;53.250;7.456;2024-02-21T09:22:48;33.50;;;11.55;;
22916;SDS011;11624;53.250;7.456;2024-02-21T09:25:16;25.17;;;11.40;;
22916;SDS011;11624;53.250;7.456;2024-02-21T09:27:45;27.98;;;11.02;;
22916;SDS011;11624;53.250;7.456;2024-02-21T09:30:15;25.70;;;10.40;;
22916;SDS011;11624;53.250;7.456;2024-02-21T09:32:44;29.05;;;11.43;;
22916;SDS011;11624;53.250;7.456;2024-02-21T09:35:12;29.00;;;11.82;;
22916;SDS011;11624;53.250;7.456;2024-02-21T09:37:41;32.10;;;12.35;;
22916;SDS011;11624;53.250;7.456;2024-02-21T09:40:10;31.25;;;13.50;;
22916;SDS011;11624;53.250;7.456;2024-02-21T09:42:40;37.38;;;13.55;;
22916;SDS011;11624;53.250;7.456;2024-02-21T09:45:12;30.50;;;14.25;;
22916;SDS011;11624;53.250;7.456;2024-02-21T09:47:50;32.92;;;13.77;;
22916;SDS011;11624;53.250;7.456;2024-02-21T09:50:34;29.60;;;13.80;;
22916;SDS011;11624;53.250;7.456;2024-02-21T09:53:03;32.10;;;14.35;;
22916;SDS011;11624;53.250;7.456;2024-02-21T09:55:34;33.38;;;13.80;;
22916;SDS011;11624;53.250;7.456;2024-02-21T09:58:07;28.42;;;13.90;;
22916;SDS011;11624;53.250;7.456;2024-02-21T10:00:38;35.20;;;14.68;;
22916;SDS011;11624;53.250;7.456;2024-02-21T10:03:06;37.85;;;16.00;;
22916;SDS011;11624;53.250;7.456;2024-02-21T10:05:36;33.08;;;14.23;;
22916;SDS011;11624;53.250;7.456;2024-02-21T10:08:06;32.58;;;14.57;;
22916;SDS011;11624;53.250;7.456;2024-02-21T10:10:42;34.72;;;14.60;;
22916;SDS011;11624;53.250;7.456;2024-02-21T10:13:11;33.17;;;14.32;;
22916;SDS011;11624;53.250;7.456;2024-02-21T10:16:05;32.97;;;15.05;;
22916;SDS011;11624;53.250;7.456;2024-02-21T10:18:34;34.10;;;13.98;;
22916;SDS011;11624;53.250;7.456;2024-02-21T10:21:03;36.30;;;16.13;;
22916;SDS011;11624;53.250;7.456;2024-02-21T10:23:42;32.42;;;14.65;;
22916;SDS011;11624;53.250;7.456;2024-02-21T10:26:12;32.53;;;14.35;;
22916;SDS011;11624;53.250;7.456;2024-02-21T10:28:41;32.05;;;14.18;;
22916;SDS011;11624;53.250;7.456;2024-02-21T10:31:21;35.65;;;15.35;;
22916;SDS011;11624;53.250;7.456;2024-02-21T10:33:55;37.85;;;14.88;;
22916;SDS011;11624;53.250;7.456;2024-02-21T10:36:24;30.35;;;13.57;;
22916;SDS011;11624;53.250;7.456;2024-02-21T10:38:54;33.42;;;12.77;;
22916;SDS011;11624;53.250;7.456;2024-02-21T10:41:23;30.77;;;13.93;;
22916;SDS011;11624;53.250;7.456;2024-02-21T10:43:54;34.28;;;14.32;;
22916;SDS011;11624;53.250;7.456;2024-02-21T10:46:24;32.08;;;14.60;;
22916;SDS011;11624;53.250;7.456;2024-02-21T10:48:56;31.13;;;14.77;;
22916;SDS011;11624;53.250;7.456;2024-02-21T10:51:33;31.77;;;14.07;;
22916;SDS011;11624;53.250;7.456;2024-02-21T10:54:09;28.13;;;13.02;;
22916;SDS011;11624;53.250;7.456;2024-02-21T10:56:52;29.88;;;13.45;;
22916;SDS011;11624;53.250;7.456;2024-02-21T10:59:22;27.95;;;12.50;;
22916;SDS011;11624;53.250;7.456;2024-02-21T11:01:54;30.35;;;13.73;;
22916;SDS011;11624;53.250;7.456;2024-02-21T11:04:25;27.10;;;13.02;;
22916;SDS011;11624;53.250;7.456;2024-02-21T11:06:54;28.02;;;12.43;;
22916;SDS011;11624;53.250;7.456;2024-02-21T11:09:29;27.58;;;12.25;;
22916;SDS011;11624;53.250;7.456;2024-02-21T11:11:58;31.25;;;12.32;;
22916;SDS011;11624;53.250;7.456;2024-02-21T11:14:28;25.88;;;11.85;;
22916;SDS011;11624;53.250;7.456;2024-02-21T11:17:02;27.73;;;11.85;;
22916;SDS011;11624;53.250;7.456;2024-02-21T11:19:42;26.85;;;11.55;;
22916;SDS011;11624;53.250;7.456;2024-02-21T11:22:14;23.33;;;11.13;;
22916;SDS011;11624;53.250;7.456;2024-02-21T11:24:44;23.45;;;11.15;;
22916;SDS011;11624;53.250;7.456;2024-02-21T11:27:13;30.48;;;10.93;;
22916;SDS011;11624;53.250;7.456;2024-02-21T11:29:43;25.92;;;11.23;;
22916;SDS011;11624;53.250;7.456;2024-02-21T11:32:14;27.40;;;11.82;;
22916;SDS011;11624;53.250;7.456;2024-02-21T11:34:52;25.05;;;11.07;;
22916;SDS011;11624;53.250;7.456;2024-02-21T11:37:23;24.45;;;10.25;;
22916;SDS011;11624;53.250;7.456;2024-02-21T11:39:54;23.48;;;10.40;;
22916;SDS011;11624;53.250;7.456;2024-02-21T11:42:22;27.45;;;10.27;;
22916;SDS011;11624;53.250;7.456;2024-02-21T11:44:53;22.77;;;10.07;;
22916;SDS011;11624;53.250;7.456;2024-02-21T11:47:25;21.27;;;9.65;;
22916;SDS011;11624;53.250;7.456;2024-02-21T11:49:53;27.50;;;10.68;;
22916;SDS011;11624;53.250;7.456;2024-02-21T11:52:22;29.02;;;10.73;;
22916;SDS011;11624;53.250;7.456;2024-02-21T11:54:53;26.80;;;9.65;;
22916;SDS011;11624;53.250;7.456;2024-02-21T11:57:24;22.42;;;9.85;;
22916;SDS011;11624;53.250;7.456;2024-02-21T11:59:53;23.08;;;8.65;;
22916;SDS011;11624;53.250;7.456;2024-02-21T12:02:27;23.23;;;8.45;;
22916;SDS011;11624;53.250;7.456;2024-02-21T12:04:56;25.75;;;8.98;;
22916;SDS011;11624;53.250;7.456;2024-02-21T12:07:24;22.58;;;8.30;;
22916;SDS011;11624;53.250;7.456;2024-02-21T12:09:58;18.75;;;8.40;;
22916;SDS011;11624;53.250;7.456;2024-02-21T12:12:27;24.83;;;8.93;;
22916;SDS011;11624;53.250;7.456;2024-02-21T12:14:56;25.05;;;9.35;;
22916;SDS011;11624;53.250;7.456;2024-02-21T12:17:26;24.17;;;8.35;;
22916;SDS011;11624;53.250;7.456;2024-02-21T12:19:55;21.38;;;7.88;;
22916;SDS011;11624;53.250;7.456;2024-02-21T12:22:25;20.08;;;7.75;;
22916;SDS011;11624;53.250;7.456;2024-02-21T12:24:52;20.65;;;8.05;;
22916;SDS011;11624;53.250;7.456;2024-02-21T12:27:21;19.52;;;7.65;;
22916;SDS011;11624;53.250;7.456;2024-02-21T12:29:50;27.38;;;9.32;;
22916;SDS011;11624;53.250;7.456;2024-02-21T12:32:19;19.88;;;8.07;;
22916;SDS011;11624;53.250;7.456;2024-02-21T12:34:48;19.13;;;7.88;;
22916;SDS011;11624;53.250;7.456;2024-02-21T12:37:21;19.23;;;6.82;;
22916;SDS011;11624;53.250;7.456;2024-02-21T12:39:50;21.13;;;7.50;;
22916;SDS011;11624;53.250;7.456;2024-02-21T12:42:18;21.50;;;8.52;;
22916;SDS011;11624;53.250;7.456;2024-02-21T12:44:47;19.80;;;7.15;;
22916;SDS011;11624;53.250;7.456;2024-02-21T12:47:16;19.27;;;7.18;;
22916;SDS011;11624;53.250;7.456;2024-02-21T12:49:46;20.08;;;7.82;;
22916;SDS011;11624;53.250;7.456;2024-02-21T12:52:16;20.85;;;7.45;;
22916;SDS011;11624;53.250;7.456;2024-02-21T12:54:44;20.98;;;7.30;;
22916;SDS011;11624;53.250;7.456;2024-02-21T12:57:14;19.25;;;6.75;;
22916;SDS011;11624;53.250;7.456;2024-02-21T12:59:42;21.65;;;6.90;;
22916;SDS011;11624;53.250;7.456;2024-02-21T13:02:11;16.83;;;6.43;;
22916;SDS011;11624;53.250;7.456;2024-02-21T13:04:39;19.58;;;6.40;;
22916;SDS011;11624;53.250;7.456;2024-02-21T13:07:08;16.40;;;6.45;;
22916;SDS011;11624;53.250;7.456;2024-02-21T13:09:38;16.95;;;7.25;;
22916;SDS011;11624;53.250;7.456;2024-02-21T13:12:07;17.77;;;6.13;;
22916;SDS011;11624;53.250;7.456;2024-02-21T13:14:36;16.65;;;6.22;;
22916;SDS011;11624;53.250;7.456;2024-02-21T13:17:06;20.13;;;6.55;;
22916;SDS011;11624;53.250;7.456;2024-02-21T13:19:34;18.40;;;5.82;;
22916;SDS011;11624;53.250;7.456;2024-02-21T13:22:03;17.52;;;5.65;;
22916;SDS011;11624;53.250;7.456;2024-02-21T13:24:32;16.50;;;5.55;;
22916;SDS011;11624;53.250;7.456;2024-02-21T13:27:02;15.27;;;5.53;;
22916;SDS011;11624;53.250;7.456;2024-02-21T13:29:31;15.05;;;5.90;;
22916;SDS011;11624;53.250;7.456;2024-02-21T13:31:59;15.25;;;6.03;;
22916;SDS011;11624;53.250;7.456;2024-02-21T13:34:28;14.80;;;5.80;;
22916;SDS011;11624;53.250;7.456;2024-02-21T13:36:57;16.88;;;5.57;;
22916;SDS011;11624;53.250;7.456;2024-02-21T13:39:26;13.95;;;5.60;;
22916;SDS011;11624;53.250;7.456;2024-02-21T13:41:54;14.52;;;5.20;;
22916;SDS011;11624;53.250;7.456;2024-02-21T13:44:26;16.52;;;5.70;;
22916;SDS011;11624;53.250;7.456;2024-02-21T13:46:54;18.15;;;5.97;;
22916;SDS011;11624;53.250;7.456;2024-02-21T13:49:23;17.20;;;6.07;;
22916;SDS011;11624;53.250;7.456;2024-02-21T13:51:51;14.32;;;4.97;;
22916;SDS011;11624;53.250;7.456;2024-02-21T13:54:20;13.60;;;4.82;;
22916;SDS011;11624;53.250;7.456;2024-02-21T13:56:49;14.05;;;5.22;;
22916;SDS011;11624;53.250;7.456;2024-02-21T13:59:18;14.80;;;4.10;;
22916;SDS011;11624;53.250;7.456;2024-02-21T14:01:48;16.23;;;4.45;;
22916;SDS011;11624;53.250;7.456;2024-02-21T14:04:16;13.95;;;4.32;;
22916;SDS011;11624;53.250;7.456;2024-02-21T14:06:45;13.00;;;4.40;;
22916;SDS011;11624;53.250;7.456;2024-02-21T14:09:14;15.32;;;4.35;;
22916;SDS011;11624;53.250;7.456;2024-02-21T14:11:42;10.80;;;3.45;;
22916;SDS011;11624;53.250;7.456;2024-02-21T14:14:12;11.80;;;3.60;;
22916;SDS011;11624;53.250;7.456;2024-02-21T14:16:41;13.02;;;4.00;;
22916;SDS011;11624;53.250;7.456;2024-02-21T14:19:11;11.13;;;3.88;;
22916;SDS011;11624;53.250;7.456;2024-02-21T14:21:40;11.45;;;3.80;;
22916;SDS011;11624;53.250;7.456;2024-02-21T14:24:08;8.60;;;3.22;;
22916;SDS011;11624;53.250;7.456;2024-02-21T14:26:37;10.25;;;3.80;;
22916;SDS011;11624;53.250;7.456;2024-02-21T14:29:11;10.65;;;3.80;;
22916;SDS011;11624;53.250;7.456;2024-02-21T14:31:39;11.73;;;3.70;;
22916;SDS011;11624;53.250;7.456;2024-02-21T14:34:09;9.43;;;3.78;;
22916;SDS011;11624;53.250;7.456;2024-02-21T14:36:39;10.13;;;3.58;;
22916;SDS011;11624;53.250;7.456;2024-02-21T14:39:08;9.90;;;3.38;;
22916;SDS011;11624;53.250;7.456;2024-02-21T14:41:36;9.82;;;3.50;;
22916;SDS011;11624;53.250;7.456;2024-02-21T14:44:06;12.27;;;3.67;;